Time;durP1;ratioP1;P1;durP2;ratioP2;P2;SDS_P1;SDS_P2;PMS_P1;PMS_P2;Temp;Humidity;BMP_temperature;BMP_pressure;BME280_temperature;BME280_humidity;BME280_pressure;Samples;Min_cycle;Max_cycle;Signal;HPM_P1;HPM_P2
2022/11/18 00:02:00;;;;;;;4.50;3.97;;;13.80;69.30;;;;;;4857666;29;20385;-76
2022/11/18 00:04:25;;;;;;;4.63;3.55;;;13.80;69.20;;;;;;4829794;29;20054;-76
2022/11/18 00:06:51;;;;;;;4.28;3.88;;;13.80;69.30;;;;;;4844994;29;20053;-79
2022/11/18 00:09:17;;;;;;;4.75;4.28;;;13.80;69.30;;;;;;4844898;29;20354;-76
2022/11/18 00:14:27;;;;;;;5.25;3.83;;;13.80;69.20;;;;;;4844840;29;20097;-78
2022/11/18 00:17:02;;;;;;;4.10;3.78;;;13.70;69.20;;;;;;4844954;29;20089;-76
2022/11/18 00:19:30;;;;;;;5.18;4.38;;;13.70;69.20;;;;;;4845016;29;20058;-76
2022/11/18 00:21:56;;;;;;;5.95;4.30;;;13.70;69.10;;;;;;4844961;29;20157;-78
2022/11/18 00:24:23;;;;;;;8.57;4.38;;;13.70;69.10;;;;;;4828636;29;20061;-75
2022/11/18 00:26:49;;;;;;;5.18;4.10;;;13.70;69.10;;;;;;4859374;29;20162;-78
2022/11/18 00:29:15;;;;;;;6.28;4.65;;;13.70;69.10;;;;;;4844040;29;20470;-75
2022/11/18 00:31:41;;;;;;;4.78;4.30;;;13.70;69.10;;;;;;4845011;29;20041;-75
2022/11/18 00:34:09;;;;;;;5.78;4.60;;;13.70;69.20;;;;;;4843690;29;20153;-77
2022/11/18 00:36:35;;;;;;;5.35;3.88;;;13.60;69.10;;;;;;4844538;29;20505;-79
2022/11/18 00:39:01;;;;;;;4.47;4.07;;;13.60;69.10;;;;;;4844572;29;20198;-76
2022/11/18 00:42:49;;;;;;;4.75;4.32;;;13.60;69.10;;;;;;4828308;29;20057;-75
2022/11/18 00:44:12;;;;;;;5.18;4.68;;;13.60;69.10;;;;;;4843887;29;20454;-75
2022/11/18 00:46:37;;;;;;;5.15;4.65;;;13.60;69.10;;;;;;4828394;29;20053;-75
2022/11/18 00:49:03;;;;;;;7.38;4.93;;;13.60;69.10;;;;;;4844413;29;20050;-75
2022/11/18 00:51:29;;;;;;;5.10;4.60;;;13.60;69.10;;;;;;4844527;29;20049;-76
2022/11/18 00:53:55;;;;;;;5.43;5.00;;;13.60;69.10;;;;;;4843137;29;20482;-75
2022/11/18 00:56:20;;;;;;;5.82;4.70;;;13.60;69.10;;;;;;4856260;29;20120;-76
2022/11/18 00:58:46;;;;;;;5.15;4.65;;;13.60;69.00;;;;;;4862501;29;20113;-78
2022/11/18 01:01:12;;;;;;;6.05;5.18;;;13.60;69.10;;;;;;4854313;29;20529;-75
2022/11/18 01:03:37;;;;;;;6.30;5.45;;;13.60;69.00;;;;;;4828319;29;20146;-76
2022/11/18 01:06:03;;;;;;;5.95;5.35;;;13.60;69.00;;;;;;4844443;29;20057;-77
2022/11/18 01:08:29;;;;;;;6.40;5.80;;;13.50;68.90;;;;;;4844338;29;20085;-76
2022/11/18 01:13:17;;;;;;;6.35;5.75;;;13.50;69.00;;;;;;4844519;29;20073;-78
2022/11/18 01:13:40;;;;;;;6.35;5.78;;;13.50;69.00;;;;;;4844109;29;20392;-76
2022/11/18 01:16:06;;;;;;;6.40;5.80;;;13.50;69.00;;;;;;4844898;29;20125;-77
2022/11/18 01:18:31;;;;;;;7.47;6.07;;;13.50;68.90;;;;;;4844091;29;20382;-76
2022/11/18 01:21:02;;;;;;;7.55;5.80;;;13.50;68.90;;;;;;4844343;29;20479;-76
2022/11/18 01:23:28;;;;;;;7.53;6.82;;;13.50;69.00;;;;;;4847103;29;20422;-77
2022/11/18 01:25:54;;;;;;;7.35;6.72;;;13.50;69.10;;;;;;4846016;29;20124;-75
2022/11/18 01:28:20;;;;;;;7.72;6.85;;;13.50;69.10;;;;;;4862247;29;20137;-75
2022/11/18 01:30:46;;;;;;;7.95;6.40;;;13.50;69.10;;;;;;4862529;29;20056;-76
2022/11/18 01:33:12;;;;;;;7.38;6.75;;;13.50;69.00;;;;;;4846592;29;20450;-75
2022/11/18 01:35:40;;;;;;;8.05;7.28;;;13.50;69.00;;;;;;4846179;29;20125;-76
2022/11/18 01:38:07;;;;;;;8.23;7.40;;;13.40;68.90;;;;;;4846383;29;21079;-77
2022/11/18 01:40:34;;;;;;;7.95;7.25;;;13.40;69.00;;;;;;4862263;29;20139;-77
2022/11/18 01:43:00;;;;;;;8.20;7.40;;;13.40;69.00;;;;;;4865775;29;20198;-77
2022/11/18 01:45:38;;;;;;;9.02;8.13;;;13.40;69.70;;;;;;4866521;29;20382;-77
2022/11/18 01:48:19;;;;;;;9.13;8.30;;;13.40;69.10;;;;;;4865845;29;20045;-78
2022/11/18 01:50:58;;;;;;;8.88;7.97;;;13.40;69.10;;;;;;4865669;29;20060;-77
2022/11/18 01:53:30;;;;;;;9.25;8.32;;;13.40;69.20;;;;;;4862831;29;20065;-75
2022/11/18 01:56:00;;;;;;;9.82;8.45;;;13.40;69.20;;;;;;4847339;29;20070;-75
2022/11/18 01:58:40;;;;;;;9.43;8.40;;;13.40;69.30;;;;;;4847589;29;20141;-75
2022/11/18 02:01:06;;;;;;;11.30;9.27;;;13.40;69.30;;;;;;4846899;29;20480;-76
2022/11/18 02:03:33;;;;;;;10.18;9.18;;;13.40;69.40;;;;;;4857266;29;20061;-77
2022/11/18 02:06:00;;;;;;;10.38;9.27;;;13.40;69.40;;;;;;4849632;29;20053;-75
2022/11/18 02:08:28;;;;;;;10.50;9.38;;;13.40;69.50;;;;;;4861144;29;20419;-76
2022/11/18 02:10:53;;;;;;;10.57;9.48;;;13.40;69.50;;;;;;4847111;29;20085;-75
2022/11/18 02:13:19;;;;;;;10.55;9.45;;;13.40;69.50;;;;;;4847142;29;20458;-76
2022/11/18 02:15:48;;;;;;;10.52;9.50;;;13.40;69.50;;;;;;4845756;29;20050;-76
2022/11/18 02:18:40;;;;;;;10.55;9.05;;;13.40;69.50;;;;;;4846447;29;20050;-76
2022/11/18 02:21:38;;;;;;;9.85;8.90;;;13.40;69.60;;;;;;4846474;29;20057;-76
2022/11/18 02:24:07;;;;;;;11.25;10.02;;;13.40;69.70;;;;;;4847126;29;20049;-76
2022/11/18 02:26:53;;;;;;;11.02;9.93;;;13.40;69.60;;;;;;4847208;29;20069;-77
2022/11/18 02:29:57;;;;;;;11.82;10.10;;;13.40;69.60;;;;;;4846692;29;20083;-75
2022/11/18 02:32:28;;;;;;;11.30;9.50;;;13.40;69.70;;;;;;4790211;30;20059;-75
2022/11/18 02:35:01;;;;;;;11.45;10.15;;;13.40;69.70;;;;;;4838031;29;20065;-76
2022/11/18 02:37:59;;;;;;;11.87;10.67;;;13.40;69.70;;;;;;4830862;29;20053;-77
2022/11/18 02:40:29;;;;;;;12.70;10.60;;;13.40;69.70;;;;;;4816542;29;20058;-76
2022/11/18 02:43:03;;;;;;;12.38;10.70;;;13.40;69.80;;;;;;4827682;29;20058;-75
2022/11/18 02:45:30;;;;;;;11.93;10.73;;;13.40;69.80;;;;;;4828581;29;20137;-77
2022/11/18 02:48:02;;;;;;;12.70;10.35;;;13.30;69.80;;;;;;4827965;29;20532;-76
2022/11/18 02:50:30;;;;;;;13.52;11.00;;;13.40;69.90;;;;;;4828161;29;20046;-76
2022/11/18 02:52:58;;;;;;;13.63;10.90;;;13.40;69.90;;;;;;4827789;29;20062;-75
2022/11/18 02:55:28;;;;;;;12.48;10.93;;;13.30;69.90;;;;;;4827730;29;20050;-76
2022/11/18 02:57:55;;;;;;;13.00;11.23;;;13.30;70.00;;;;;;4827937;29;20058;-75
2022/11/18 03:00:21;;;;;;;14.07;11.52;;;13.30;70.00;;;;;;4812655;29;20066;-75
2022/11/18 03:02:48;;;;;;;13.52;11.05;;;13.30;70.00;;;;;;4828065;29;20054;-77
2022/11/18 03:05:23;;;;;;;12.75;10.98;;;13.30;70.10;;;;;;4811998;29;20479;-76
2022/11/18 03:07:54;;;;;;;12.98;10.93;;;13.30;70.10;;;;;;4827555;29;20366;-79
2022/11/18 03:10:22;;;;;;;15.63;11.90;;;13.30;70.00;;;;;;4827655;29;20098;-76
2022/11/18 03:12:55;;;;;;;14.32;11.60;;;13.40;70.10;;;;;;4827568;29;20084;-74
2022/11/18 03:15:40;;;;;;;13.35;11.63;;;13.30;70.10;;;;;;4827621;29;20051;-76
2022/11/18 03:18:31;;;;;;;15.93;12.60;;;13.30;70.10;;;;;;4827650;29;20054;-75
2022/11/18 03:21:06;;;;;;;15.70;12.43;;;13.30;70.10;;;;;;4827977;29;20408;-76
2022/11/18 03:23:41;;;;;;;14.55;11.80;;;13.30;70.20;;;;;;4827605;29;20466;-75
2022/11/18 03:26:16;;;;;;;14.98;13.07;;;13.30;70.20;;;;;;4827439;29;20111;-77
2022/11/18 03:29:01;;;;;;;14.02;12.50;;;13.30;70.20;;;;;;4811655;29;20058;-76
2022/11/18 03:31:40;;;;;;;16.55;12.40;;;13.30;70.10;;;;;;4827265;29;20133;-78
2022/11/18 03:34:21;;;;;;;14.68;13.07;;;13.30;70.20;;;;;;4827484;29;20062;-76
2022/11/18 03:36:53;;;;;;;16.98;12.48;;;13.30;70.20;;;;;;4827259;29;20363;-76
2022/11/18 03:39:21;;;;;;;15.77;12.05;;;13.30;70.30;;;;;;4853380;29;20045;-76
2022/11/18 03:41:54;;;;;;;18.90;11.43;;;13.30;70.40;;;;;;4863469;29;20053;-77
2022/11/18 05:57:10;;;;;;;13.02;7.88;;;15.10;71.50;;;;;;5231316;24;21115;-79
2022/11/18 05:59:36;;;;;;;14.07;8.90;;;15.00;71.10;;;;;;4833095;29;20046;-81
2022/11/18 06:02:21;;;;;;;14.18;10.57;;;15.00;71.50;;;;;;4830620;29;20060;-79
2022/11/18 06:04:52;;;;;;;15.40;12.27;;;15.00;70.30;;;;;;4832700;29;20053;-80
2022/11/18 06:07:23;;;;;;;16.58;11.05;;;15.00;69.30;;;;;;4864933;29;20053;-81
2022/11/18 06:09:53;;;;;;;12.73;10.77;;;14.90;68.70;;;;;;4865258;29;20057;-81
2022/11/18 06:12:23;;;;;;;13.73;9.88;;;14.80;68.70;;;;;;4864296;29;20049;-82
2022/11/18 06:15:04;;;;;;;18.50;10.55;;;14.70;68.70;;;;;;4847338;29;20457;-82
2022/11/18 06:17:51;;;;;;;15.60;8.95;;;14.70;69.00;;;;;;4829459;29;20430;-83
2022/11/18 06:20:19;;;;;;;14.98;9.02;;;14.90;69.50;;;;;;4830127;29;20056;-81
2022/11/18 06:22:45;;;;;;;16.35;8.30;;;15.10;69.50;;;;;;4845674;29;20050;-81
2022/11/18 06:25:11;;;;;;;32.72;9.48;;;15.20;69.50;;;;;;4834153;29;20045;-81
2022/11/18 06:27:42;;;;;;;37.17;9.13;;;15.30;69.70;;;;;;4848103;29;20049;-79
2022/11/18 06:30:09;;;;;;;35.00;8.27;;;15.40;69.70;;;;;;4864640;29;20575;-84
2022/11/18 06:32:35;;;;;;;22.55;6.95;;;15.40;70.00;;;;;;4849142;29;20049;-79
2022/11/18 06:35:01;;;;;;;27.15;8.32;;;15.50;70.20;;;;;;4846585;29;20064;-80
2022/11/18 06:37:27;;;;;;;21.90;6.95;;;15.50;70.20;;;;;;4846906;29;20046;-80
2022/11/18 06:39:53;;;;;;;12.20;6.53;;;15.60;70.40;;;;;;4830095;29;20042;-78
2022/11/18 06:45:04;;;;;;;14.57;6.10;;;15.60;70.30;;;;;;4861254;29;20449;-78
2022/11/18 06:47:30;;;;;;;26.40;6.60;;;15.50;70.40;;;;;;4837453;29;20128;-75
2022/11/18 06:49:56;;;;;;;22.75;6.72;;;15.50;70.50;;;;;;4829132;29;20158;-74
2022/11/18 06:52:22;;;;;;;26.13;6.70;;;15.60;70.80;;;;;;4846409;29;20105;-74
2022/11/18 06:54:48;;;;;;;22.20;7.63;;;15.60;71.00;;;;;;4845578;29;20359;-81
2022/11/18 06:57:14;;;;;;;22.27;7.18;;;15.60;71.00;;;;;;4847447;29;20052;-80
2022/11/18 06:59:40;;;;;;;22.77;6.22;;;15.60;71.20;;;;;;4864338;29;20096;-81
2022/11/18 07:02:06;;;;;;;18.30;7.05;;;15.60;71.20;;;;;;4848410;29;20390;-81
2022/11/18 07:04:33;;;;;;;21.15;6.93;;;15.60;71.40;;;;;;4832675;29;20057;-81
2022/11/18 07:06:59;;;;;;;14.07;6.45;;;15.60;71.50;;;;;;4848425;29;20057;-81
2022/11/18 07:09:25;;;;;;;16.27;5.70;;;15.60;71.60;;;;;;4845082;29;20446;-79
2022/11/18 07:11:50;;;;;;;22.95;6.80;;;15.60;71.70;;;;;;4830188;29;20050;-83
2022/11/18 07:14:16;;;;;;;17.65;6.20;;;15.50;70.90;;;;;;4845677;29;20114;-81
2022/11/18 07:16:42;;;;;;;17.33;7.20;;;15.50;71.80;;;;;;4842973;29;20124;-81
2022/11/18 07:19:10;;;;;;;14.13;5.65;;;15.50;71.90;;;;;;4863733;29;20075;-81
2022/11/18 07:21:36;;;;;;;16.10;5.90;;;15.40;71.80;;;;;;4847806;29;20054;-81
2022/11/18 07:24:06;;;;;;;16.95;6.43;;;15.50;71.80;;;;;;4864071;29;20052;-82
2022/11/18 07:26:32;;;;;;;14.63;5.78;;;15.40;71.90;;;;;;4835545;29;20089;-82
2022/11/18 07:28:58;;;;;;;16.40;6.35;;;15.40;71.90;;;;;;4830102;29;20050;-81
2022/11/18 07:31:23;;;;;;;13.05;7.00;;;15.30;71.90;;;;;;4845700;29;20415;-80
2022/11/18 07:33:52;;;;;;;11.57;5.70;;;15.30;71.90;;;;;;4829234;29;20038;-81
2022/11/18 07:36:26;;;;;;;17.13;6.32;;;15.30;71.90;;;;;;4849472;29;20054;-81
2022/11/18 07:38:52;;;;;;;14.02;5.88;;;15.20;71.90;;;;;;4826916;29;20434;-80
2022/11/18 07:41:21;;;;;;;9.35;5.78;;;15.20;71.90;;;;;;4826165;29;20171;-82
2022/11/18 07:43:49;;;;;;;9.43;5.57;;;15.20;72.00;;;;;;4827040;29;20046;-75
2022/11/18 07:46:19;;;;;;;8.68;5.70;;;15.20;72.00;;;;;;4846242;29;20053;-75
2022/11/18 07:48:46;;;;;;;27.70;6.18;;;15.20;72.00;;;;;;4846930;29;20049;-74
2022/11/18 07:51:14;;;;;;;11.30;6.43;;;15.10;71.90;;;;;;4863948;29;20148;-76
2022/11/18 07:53:40;;;;;;;13.25;8.80;;;15.20;72.10;;;;;;4863508;29;20085;-80
2022/11/18 07:56:07;;;;;;;14.70;10.43;;;15.20;71.90;;;;;;4855399;29;20361;-73
2022/11/18 08:06:50;;;;;;;10.73;9.13;;;15.20;70.30;;;;;;4845337;29;20058;-82
2022/11/18 08:40:51;;;;;;;9.93;7.47;;;14.90;71.20;;;;;;5770097;24;20896;-78
2022/11/18 08:43:16;;;;;;;12.55;8.35;;;14.90;71.30;;;;;;4840630;29;20061;-76
2022/11/18 08:50:26;;;;;;;10.88;8.85;;;14.90;70.90;;;;;;4805567;29;20049;-84
2022/11/18 08:52:54;;;;;;;8.95;7.57;;;14.80;70.60;;;;;;4754040;30;20380;-83
2022/11/18 08:55:19;;;;;;;10.52;6.15;;;14.80;70.50;;;;;;4769693;30;20427;-83
2022/11/18 08:57:46;;;;;;;9.50;6.63;;;14.60;69.90;;;;;;4806036;29;20097;-83
2022/11/18 09:00:15;;;;;;;8.50;5.93;;;14.50;70.60;;;;;;4861624;29;20072;-84
2022/11/18 09:02:41;;;;;;;8.65;7.07;;;14.50;71.00;;;;;;4821549;29;20127;-84
2022/11/18 09:05:10;;;;;;;8.82;6.85;;;14.40;71.20;;;;;;4813441;29;20149;-84
2022/11/18 09:07:38;;;;;;;11.90;6.57;;;14.40;71.40;;;;;;4828715;29;20057;-84
2022/11/18 09:10:04;;;;;;;11.98;6.78;;;14.30;71.60;;;;;;4812803;29;20048;-84
2022/11/18 09:12:30;;;;;;;13.43;6.57;;;14.30;71.80;;;;;;4819977;29;20409;-85
2022/11/18 09:14:58;;;;;;;12.13;6.63;;;14.20;71.90;;;;;;4861851;29;20037;-79
2022/11/18 09:17:24;;;;;;;9.77;6.22;;;14.20;72.00;;;;;;4845750;29;20041;-86
2022/11/18 09:19:50;;;;;;;7.40;5.75;;;14.10;72.10;;;;;;4846446;29;20030;-79
2022/11/18 09:22:15;;;;;;;8.80;6.63;;;14.10;72.20;;;;;;4842874;29;20053;-85
2022/11/18 09:24:42;;;;;;;6.97;6.15;;;14.00;72.40;;;;;;4859087;29;20046;-79
2022/11/18 09:27:08;;;;;;;9.10;6.07;;;14.00;72.50;;;;;;4862559;29;20544;-80
2022/11/18 09:29:33;;;;;;;9.18;5.95;;;14.00;72.70;;;;;;4861196;29;20102;-84
2022/11/18 09:32:00;;;;;;;8.30;6.03;;;14.00;72.80;;;;;;4846022;29;20101;-82
2022/11/18 09:34:30;;;;;;;11.63;6.10;;;14.00;72.90;;;;;;4811057;29;20048;-85
2022/11/18 09:36:55;;;;;;;9.05;5.97;;;14.00;72.90;;;;;;4809433;29;20412;-85
2022/11/18 09:39:23;;;;;;;7.22;5.57;;;14.00;72.90;;;;;;4809562;29;20107;-84
2022/11/18 09:41:53;;;;;;;9.70;5.55;;;14.00;73.00;;;;;;4839968;29;20095;-83
2022/11/18 09:44:46;;;;;;;10.00;6.07;;;14.00;73.10;;;;;;4839946;29;20053;-84
2022/11/18 09:47:26;;;;;;;8.97;6.27;;;14.00;73.20;;;;;;4861252;29;20121;-84
2022/11/18 09:49:55;;;;;;;12.52;5.45;;;14.00;73.20;;;;;;4846712;29;20304;-84
2022/11/18 09:52:37;;;;;;;12.32;6.47;;;14.00;73.30;;;;;;4846126;29;20520;-73
2022/11/18 09:55:12;;;;;;;14.90;9.30;;;14.00;73.10;;;;;;4849817;29;20061;-74
2022/11/18 09:57:43;;;;;;;12.23;8.75;;;14.10;70.10;;;;;;4862347;29;20141;-77
2022/11/18 10:00:15;;;;;;;10.73;8.32;;;14.10;67.80;;;;;;4862418;29;20053;-76
2022/11/18 10:03:06;;;;;;;12.23;8.50;;;13.90;67.10;;;;;;4849284;29;20347;-77
2022/11/18 10:06:00;;;;;;;14.32;8.02;;;13.80;68.20;;;;;;4831086;29;20060;-84
2022/11/18 10:08:42;;;;;;;13.93;7.35;;;13.80;69.00;;;;;;4846326;29;20469;-82
2022/11/18 10:11:18;;;;;;;8.07;6.00;;;13.90;69.10;;;;;;4846983;29;20088;-84
2022/11/18 10:14:05;;;;;;;9.40;6.07;;;14.10;69.30;;;;;;4846093;29;20050;-85
2022/11/18 10:16:41;;;;;;;13.50;5.80;;;14.30;69.20;;;;;;4830694;29;20045;-80
2022/11/18 10:19:28;;;;;;;9.77;4.90;;;14.60;69.10;;;;;;4847253;29;20042;-87
2022/11/18 10:22:05;;;;;;;8.35;4.93;;;14.80;69.50;;;;;;4837088;29;20133;-83
2022/11/18 10:24:52;;;;;;;13.40;4.45;;;15.00;68.50;;;;;;4848633;29;20045;-83
2022/11/18 10:27:18;;;;;;;9.18;5.20;;;15.10;68.40;;;;;;4864325;29;20117;-82
2022/11/18 10:29:54;;;;;;;12.23;4.43;;;15.20;68.50;;;;;;4864145;29;20072;-84
2022/11/18 10:40:03;;;;;;;11.05;4.25;;;15.40;69.30;;;;;;4771764;30;20051;-85
2022/11/18 10:43:16;;;;;;;;;;;;;;;;;;;;;
2022/11/18 10:45:51;;;;;;;9.95;3.80;;;15.40;69.50;;;;;;4829511;29;20057;-83
2022/11/18 10:48:20;;;;;;;10.93;3.90;;;15.40;69.70;;;;;;4863747;29;20053;-84
2022/11/18 10:50:49;;;;;;;11.10;4.53;;;15.40;69.80;;;;;;4863834;29;20042;-83
2022/11/18 10:54:10;;;;;;;7.65;3.72;;;15.40;69.90;;;;;;4846585;29;20406;-83
2022/11/18 10:57:15;;;;;;;7.78;2.85;;;15.50;70.10;;;;;;4788903;29;20059;-85
2022/11/18 11:00:01;;;;;;;;;;;15.40;70.10;;;;;;4848742;29;20056;-83
2022/11/18 11:02:40;;;;;;;9.32;3.50;;;15.50;70.30;;;;;;4840246;29;19920;-85
2022/11/18 11:05:21;;;;;;;9.57;3.22;;;15.50;70.30;;;;;;4830052;29;20064;-81
2022/11/18 11:08:00;;;;;;;9.18;2.97;;;15.50;70.30;;;;;;4829630;29;20046;-81
2022/11/18 11:10:26;;;;;;;5.60;3.30;;;15.60;70.30;;;;;;4829053;29;20049;-81
2022/11/18 11:13:00;;;;;;;9.15;3.00;;;15.60;70.20;;;;;;4823382;29;20038;-81
2022/11/18 11:15:44;;;;;;;8.80;3.17;;;15.80;70.10;;;;;;4833004;29;20140;-81
2022/11/18 11:18:43;;;;;;;7.55;2.83;;;15.90;69.80;;;;;;4841049;29;20042;-83
2022/11/18 11:21:24;;;;;;;10.18;2.42;;;16.10;69.60;;;;;;4814207;29;20060;-84
2022/11/18 11:23:55;;;;;;;12.20;2.95;;;16.10;69.40;;;;;;4814630;29;20462;-83
2022/11/18 11:26:43;;;;;;;8.30;2.50;;;16.20;69.30;;;;;;4814857;29;20128;-84
2022/11/18 11:29:58;;;;;;;6.55;2.33;;;16.20;69.30;;;;;;4829423;29;20042;-86
2022/11/18 11:32:41;;;;;;;4.15;2.30;;;16.10;69.30;;;;;;4811751;29;20039;-83
2022/11/18 11:35:53;;;;;;;6.57;3.50;;;16.10;69.50;;;;;;4823696;29;20122;-86
2022/11/18 11:39:00;;;;;;;8.57;2.45;;;16.10;69.60;;;;;;4823752;29;20286;-82
2022/11/18 11:41:54;;;;;;;5.90;2.55;;;16.10;69.70;;;;;;4822092;29;20490;-84
2022/11/18 11:44:40;;;;;;;7.95;2.70;;;16.10;69.80;;;;;;4848204;29;20054;-82
2022/11/18 11:47:45;;;;;;;6.75;2.22;;;16.00;70.00;;;;;;4846898;29;20060;-80
2022/11/18 11:50:12;;;;;;;5.72;3.05;;;16.00;70.10;;;;;;4860015;29;20112;-77
2022/11/18 11:52:59;;;;;;;5.95;3.70;;;16.00;69.90;;;;;;4828969;29;20042;-79
2022/11/18 11:55:44;;;;;;;8.15;5.05;;;15.90;68.90;;;;;;4845212;29;20129;-77
2022/11/18 11:59:01;;;;;;;6.18;4.57;;;15.90;68.40;;;;;;4845187;29;20050;-84
2022/11/18 12:02:17;;;;;;;7.72;4.95;;;15.90;67.30;;;;;;4785128;29;20134;-84
2022/11/18 12:08:59;;;;;;;11.07;4.68;;;15.70;67.10;;;;;;4791136;29;20123;-84
2022/11/18 12:27:17;;;;;;;;;;;;;;;;;;;;;
2022/11/18 12:45:42;;;;;;;9.07;3.65;;;15.20;70.10;;;;;;4774741;29;20129;-77
2022/11/18 12:48:31;;;;;;;7.32;4.30;;;15.20;70.10;;;;;;4844280;29;20143;-75
2022/11/18 12:51:07;;;;;;;8.65;4.30;;;15.30;69.50;;;;;;4828926;29;20061;-76
2022/11/18 12:53:42;;;;;;;6.10;5.22;;;15.30;68.70;;;;;;4858260;29;20128;-75
2022/11/18 12:56:16;;;;;;;9.40;5.97;;;15.30;67.60;;;;;;4860732;29;20053;-76
2022/11/18 13:28:12;;;;;;;5.85;3.42;;;15.10;66.90;;;;;;5462382;24;20058;-75
2022/11/18 13:31:24;;;;;;;8.20;4.30;;;15.10;67.00;;;;;;4826179;29;20064;-84
2022/11/18 13:34:25;;;;;;;5.78;3.90;;;15.10;67.10;;;;;;4795249;29;20058;-84
2022/11/18 13:37:02;;;;;;;8.10;3.88;;;15.10;67.30;;;;;;4811126;29;20534;-82
2022/11/18 13:39:33;;;;;;;12.13;3.78;;;15.10;68.40;;;;;;4812217;29;20050;-82
2022/11/18 13:42:46;;;;;;;16.90;4.72;;;15.20;67.80;;;;;;4814838;29;20041;-83
2022/11/18 13:45:14;;;;;;;7.07;3.15;;;15.40;67.70;;;;;;4830377;29;20095;-81
2022/11/18 13:48:00;;;;;;;14.65;3.38;;;15.50;67.70;;;;;;4835248;29;20430;-82
2022/11/18 13:50:36;;;;;;;6.22;3.20;;;15.50;67.60;;;;;;4828659;29;20042;-80
2022/11/18 13:53:52;;;;;;;5.50;3.30;;;15.60;67.60;;;;;;4812969;29;20042;-82
2022/11/18 13:56:34;;;;;;;4.65;2.90;;;15.60;67.60;;;;;;4827471;29;20146;-81
2022/11/18 13:59:04;;;;;;;5.90;3.22;;;15.60;67.70;;;;;;4798788;29;20042;-84
2022/11/18 14:01:33;;;;;;;6.25;2.80;;;15.60;67.90;;;;;;4811741;29;20054;-82
2022/11/18 14:04:29;;;;;;;7.28;3.13;;;15.60;68.00;;;;;;4797023;29;20050;-81
2022/11/18 14:07:25;;;;;;;5.97;3.08;;;15.60;68.10;;;;;;4794636;29;20363;-83
2022/11/18 14:10:21;;;;;;;5.50;2.72;;;15.60;68.20;;;;;;4794547;29;20047;-80
2022/11/18 14:23:57;;;;;;;5.88;3.60;;;15.50;69.20;;;;;;4771254;29;20063;-86
2022/11/18 14:26:34;;;;;;;8.23;3.28;;;15.50;69.30;;;;;;4757181;30;20134;-85
2022/11/18 14:29:21;;;;;;;9.77;3.28;;;15.40;69.40;;;;;;4801970;29;20371;-76
2022/11/18 14:32:23;;;;;;;7.03;3.75;;;15.50;70.00;;;;;;4810211;29;20082;-75
2022/11/18 14:35:00;;;;;;;8.52;6.05;;;15.50;68.90;;;;;;4772229;30;20052;-75
2022/11/18 14:38:12;;;;;;;9.88;5.78;;;15.50;67.90;;;;;;4822440;29;20053;-84
2022/11/18 14:44:44;;;;;;;;;;;;;;;;;;;;;
2022/11/18 14:47:34;;;;;;;8.52;5.15;;;15.40;65.50;;;;;;4763495;29;20457;-80
2022/11/18 14:50:20;;;;;;;13.35;5.43;;;15.40;65.40;;;;;;4774366;30;20051;-85
2022/11/18 14:52:54;;;;;;;7.72;4.55;;;15.40;65.60;;;;;;4767879;30;20435;-73
2022/11/18 14:55:19;;;;;;;11.10;5.45;;;15.40;66.20;;;;;;4796129;29;20062;-79
2022/11/18 14:57:45;;;;;;;13.05;4.95;;;15.40;66.30;;;;;;4824449;29;20046;-72
2022/11/18 15:00:14;;;;;;;8.30;5.05;;;15.40;66.20;;;;;;4827738;29;20123;-79
2022/11/18 15:02:40;;;;;;;8.90;5.45;;;15.40;66.00;;;;;;4835136;29;20075;-77
2022/11/18 15:05:07;;;;;;;8.85;5.10;;;15.40;65.90;;;;;;4829352;29;20518;-75
2022/11/18 15:07:33;;;;;;;13.48;6.00;;;15.30;65.30;;;;;;4828128;29;20046;-75
2022/11/18 15:10:50;;;;;;;;;;;;;;;;;;;;;
2022/11/18 15:13:46;;;;;;;11.43;5.35;;;15.30;65.10;;;;;;4827221;29;20054;-83
2022/11/18 15:16:51;;;;;;;17.50;5.82;;;15.20;65.20;;;;;;4826725;29;20064;-83
2022/11/18 15:22:20;;;;;;;8.82;4.80;;;15.20;65.30;;;;;;4833881;29;19928;-77
2022/11/18 15:24:46;;;;;;;8.70;4.95;;;15.20;65.90;;;;;;4845681;29;20117;-78
2022/11/18 15:27:12;;;;;;;11.55;5.38;;;15.20;66.00;;;;;;4845464;29;20113;-79
2022/11/18 15:29:38;;;;;;;11.93;6.55;;;15.20;65.80;;;;;;4845439;29;20050;-79
2022/11/18 15:32:04;;;;;;;12.57;8.50;;;15.20;65.60;;;;;;4840008;29;20062;-80
2022/11/18 15:34:30;;;;;;;11.55;8.15;;;15.20;63.90;;;;;;4827055;29;20051;-79
2022/11/18 15:36:56;;;;;;;10.20;7.75;;;15.10;63.10;;;;;;4827509;29;20046;-78
2022/11/18 15:39:21;;;;;;;9.10;7.68;;;15.10;62.70;;;;;;4826242;29;20046;-74
2022/11/18 15:41:47;;;;;;;12.13;8.68;;;15.00;61.60;;;;;;4832123;29;20058;-76
2022/11/18 16:00:00;;;;;;;14.32;6.00;;;14.90;61.30;;;;;;4825594;29;20054;-84
2022/11/18 16:02:26;;;;;;;17.38;6.13;;;15.10;61.70;;;;;;4821997;29;20057;-80
2022/11/18 16:04:51;;;;;;;17.92;6.32;;;15.30;62.00;;;;;;4826916;29;20061;-84
2022/11/18 16:07:24;;;;;;;18.88;7.00;;;15.30;62.40;;;;;;4844535;29;20115;-81
2022/11/18 16:12:46;;;;;;;35.92;7.07;;;15.50;63.40;;;;;;4813620;29;20042;-83
2022/11/18 16:17:57;;;;;;;20.52;6.25;;;15.60;64.20;;;;;;4810165;29;20082;-83
2022/11/18 16:20:56;;;;;;;22.38;6.82;;;15.60;64.60;;;;;;4810174;29;20073;-84
2022/11/18 16:23:22;;;;;;;19.80;6.05;;;15.60;65.20;;;;;;4784024;29;20070;-78
2022/11/18 16:25:49;;;;;;;22.30;5.80;;;15.60;65.30;;;;;;4807933;29;20038;-84
2022/11/18 16:28:14;;;;;;;25.17;5.82;;;15.60;65.50;;;;;;4822079;29;20055;-85
2022/11/18 16:34:00;;;;;;;32.00;5.90;;;15.60;66.00;;;;;;4807894;29;20379;-85
2022/11/18 16:51:58;;;;;;;26.50;6.00;;;15.50;67.80;;;;;;4803527;29;20073;-84
2022/11/18 16:55:08;;;;;;;24.73;5.88;;;15.50;68.20;;;;;;4758410;30;20051;-84
2022/11/18 16:57:59;;;;;;;20.15;5.72;;;15.50;68.40;;;;;;4757276;30;20094;-84
2022/11/18 17:00:25;;;;;;;23.80;7.32;;;15.50;67.30;;;;;;4777136;29;20093;-75
2022/11/18 17:02:50;;;;;;;23.38;7.55;;;15.40;66.20;;;;;;4835378;29;20046;-74
2022/11/18 17:05:16;;;;;;;17.42;5.95;;;15.50;64.60;;;;;;4844326;29;20041;-81
2022/11/18 17:07:42;;;;;;;15.93;6.88;;;15.40;63.60;;;;;;4828549;29;20591;-80
2022/11/18 17:10:18;;;;;;;24.40;7.03;;;15.40;63.60;;;;;;4844529;29;20051;-83
2022/11/18 17:13:22;;;;;;;15.10;5.78;;;15.40;63.90;;;;;;4835477;29;20389;-84
2022/11/18 17:15:57;;;;;;;23.48;6.20;;;15.40;64.10;;;;;;4818906;29;20115;-85
2022/11/18 17:19:05;;;;;;;18.35;6.18;;;15.30;64.30;;;;;;4798412;29;20474;-84
2022/11/18 17:22:09;;;;;;;13.43;5.60;;;15.40;64.10;;;;;;4801008;29;20065;-85
2022/11/18 17:28:22;;;;;;;12.38;5.55;;;15.20;64.60;;;;;;4796784;29;20054;-84
2022/11/18 17:31:08;;;;;;;14.32;5.63;;;15.20;64.80;;;;;;4845706;29;20052;-84
2022/11/18 17:34:00;;;;;;;;;;;;;;;;;;;;;
2022/11/18 17:37:03;;;;;;;9.60;4.43;;;15.20;65.00;;;;;;4811866;29;20050;-84
2022/11/18 17:40:18;;;;;;;;;;;;;;;;;;;;;
2022/11/18 17:51:03;;;;;;;10.77;5.45;;;15.00;65.40;;;;;;4760416;29;20472;-84
2022/11/18 17:54:14;;;;;;;11.60;4.70;;;15.00;65.60;;;;;;4791972;29;20047;-84
2022/11/18 18:00:54;;;;;;;;;;;;;;;;;;;;;
2022/11/18 18:03:38;;;;;;;8.23;4.13;;;14.90;66.10;;;;;;4765227;29;20075;-84
2022/11/18 18:06:10;;;;;;;7.75;4.30;;;14.90;66.20;;;;;;4808694;29;20489;-85
2022/11/18 18:08:37;;;;;;;12.27;4.50;;;14.90;66.30;;;;;;4808016;29;20118;-81
2022/11/18 18:11:09;;;;;;;9.20;5.03;;;14.90;66.40;;;;;;4824374;29;20050;-84
2022/11/18 18:16:24;;;;;;;10.32;4.60;;;15.00;66.60;;;;;;4830989;29;20366;-83
2022/11/18 18:18:50;;;;;;;13.70;5.38;;;15.00;66.70;;;;;;4846969;29;20042;-84
2022/11/18 18:21:19;;;;;;;13.55;4.60;;;14.90;66.80;;;;;;4842756;29;20056;-83
2022/11/18 18:23:47;;;;;;;8.88;5.20;;;14.90;66.80;;;;;;4810993;29;20050;-81
2022/11/18 18:26:16;;;;;;;16.30;4.80;;;15.00;67.20;;;;;;4811727;29;20049;-83
2022/11/18 18:28:41;;;;;;;11.07;5.28;;;15.00;67.30;;;;;;4802989;29;20070;-85
2022/11/18 18:31:28;;;;;;;7.72;4.35;;;15.00;67.30;;;;;;4794186;29;20046;-79
2022/11/18 18:34:02;;;;;;;17.38;6.20;;;15.00;67.40;;;;;;4778886;29;20092;-82
2022/11/18 18:36:28;;;;;;;10.60;5.00;;;14.90;68.10;;;;;;4794057;29;20047;-80
2022/11/18 18:38:56;;;;;;;11.85;5.22;;;15.00;68.80;;;;;;4809940;29;20050;-83
2022/11/18 18:41:22;;;;;;;15.48;5.25;;;15.00;69.80;;;;;;4797595;29;20080;-82
2022/11/18 18:43:49;;;;;;;10.68;5.00;;;15.00;69.30;;;;;;4798922;29;20494;-80
2022/11/18 18:46:27;;;;;;;9.75;4.50;;;15.00;69.60;;;;;;4793675;29;20078;-83
2022/11/18 18:49:19;;;;;;;18.20;5.68;;;15.00;69.60;;;;;;4779104;29;20047;-82
2022/11/18 18:51:49;;;;;;;9.00;4.57;;;15.00;69.50;;;;;;4791826;30;20043;-82
2022/11/18 18:54:19;;;;;;;10.90;4.97;;;15.00;70.40;;;;;;4791993;30;20059;-84
2022/11/18 18:56:45;;;;;;;10.73;4.88;;;15.00;70.00;;;;;;4761240;30;20051;-80
2022/11/18 18:59:11;;;;;;;11.30;5.18;;;15.00;69.50;;;;;;4791776;30;20470;-81
2022/11/18 19:01:37;;;;;;;9.38;4.70;;;15.00;69.20;;;;;;4777079;29;20130;-79